Time;durP1;ratioP1;P1;durP2;ratioP2;P2;SDS_P1;SDS_P2;PMS_P1;PMS_P2;Temp;Humidity;BMP_temperature;BMP_pressure;BME280_temperature;BME280_humidity;BME280_pressure;Samples;Min_cycle;Max_cycle;Signal;HPM_P1;HPM_P2
2022/03/04 00:01:12;;;;;;;9.53;9.23;;;1.00;99.90;;;;;;5124653;27;20292;-80
2022/03/04 00:06:29;;;;;;;9.60;9.30;;;1.00;99.90;;;;;;5124055;28;20223;-81
2022/03/04 00:08:58;;;;;;;9.57;9.27;;;0.90;99.90;;;;;;5124595;28;20248;-80
2022/03/04 00:11:27;;;;;;;9.50;9.20;;;0.90;99.90;;;;;;5123429;28;20229;-82
2022/03/04 00:13:59;;;;;;;9.40;9.10;;;0.90;99.90;;;;;;5123060;28;20240;-81
2022/03/04 00:16:27;;;;;;;9.60;9.30;;;0.70;99.90;;;;;;5123225;28;20240;-81
2022/03/04 00:19:08;;;;;;;9.60;9.30;;;0.60;99.90;;;;;;5123657;28;20256;-80
2022/03/04 00:21:44;;;;;;;9.60;9.30;;;0.60;99.90;;;;;;5123053;27;20240;-80
2022/03/04 00:24:22;;;;;;;9.60;9.30;;;0.70;99.90;;;;;;5123463;27;20275;-79
2022/03/04 00:26:51;;;;;;;9.50;9.20;;;0.70;99.90;;;;;;5124450;28;20383;-80
2022/03/04 00:29:19;;;;;;;9.50;9.20;;;0.70;99.90;;;;;;5126267;28;20221;-81
2022/03/04 00:31:49;;;;;;;9.60;9.30;;;0.70;99.90;;;;;;5126533;27;20259;-80
2022/03/04 00:34:28;;;;;;;9.60;9.30;;;0.70;99.90;;;;;;5123989;28;20236;-79
2022/03/04 00:36:57;;;;;;;9.90;9.60;;;0.70;99.90;;;;;;5123635;28;20227;-80
2022/03/04 00:39:29;;;;;;;9.60;9.30;;;0.70;99.90;;;;;;5124435;28;20234;-80
2022/03/04 00:41:57;;;;;;;9.37;9.07;;;0.70;99.90;;;;;;5124523;28;20247;-81
2022/03/04 00:44:25;;;;;;;9.50;9.20;;;0.70;99.90;;;;;;5123882;27;20239;-81
2022/03/04 00:46:55;;;;;;;9.50;9.20;;;0.60;99.90;;;;;;5122444;28;20313;-81
2022/03/04 00:49:27;;;;;;;9.57;9.27;;;0.60;99.90;;;;;;5122852;28;20223;-81
2022/03/04 00:51:55;;;;;;;9.50;9.20;;;0.60;99.90;;;;;;5122096;28;20252;-80
2022/03/04 00:54:23;;;;;;;9.40;9.10;;;0.50;99.90;;;;;;5122688;28;20771;-81
2022/03/04 00:56:52;;;;;;;9.57;9.27;;;0.50;99.90;;;;;;5122606;28;20232;-81
2022/03/04 00:59:22;;;;;;;9.50;9.20;;;0.50;99.90;;;;;;5122435;28;20225;-81
2022/03/04 01:01:51;;;;;;;9.40;9.10;;;0.50;99.90;;;;;;5122525;27;20241;-81
2022/03/04 01:04:20;;;;;;;9.20;8.90;;;0.40;99.90;;;;;;5122959;28;20275;-80
2022/03/04 01:06:58;;;;;;;9.43;9.13;;;0.40;99.90;;;;;;5126630;28;20232;-81
2022/03/04 01:09:29;;;;;;;9.40;9.10;;;0.30;99.90;;;;;;5124409;28;20217;-81
2022/03/04 01:11:57;;;;;;;9.40;9.10;;;0.30;99.90;;;;;;5124283;28;20282;-81
2022/03/04 01:14:28;;;;;;;9.50;9.20;;;0.30;99.90;;;;;;5122199;28;20656;-82
2022/03/04 01:16:56;;;;;;;9.60;9.30;;;0.10;99.90;;;;;;5123338;28;20235;-81
2022/03/04 01:19:27;;;;;;;9.70;9.40;;;0.10;99.90;;;;;;5122240;28;20224;-82
2022/03/04 01:21:58;;;;;;;9.73;9.43;;;-0.10;99.90;;;;;;5121018;28;20246;-81
2022/03/04 01:24:26;;;;;;;10.00;9.70;;;-0.30;99.90;;;;;;5122771;28;21014;-81
2022/03/04 01:26:56;;;;;;;9.40;9.10;;;-0.40;99.90;;;;;;5123967;28;20232;-81
2022/03/04 01:29:24;;;;;;;9.87;9.57;;;-0.40;99.90;;;;;;5122701;28;20284;-81
2022/03/04 01:31:53;;;;;;;9.80;9.50;;;-0.40;99.90;;;;;;5122110;27;20228;-81
2022/03/04 01:34:22;;;;;;;9.50;9.20;;;-0.40;99.90;;;;;;5122400;27;20259;-82
2022/03/04 01:36:52;;;;;;;9.50;9.20;;;-0.40;99.90;;;;;;5128978;28;20318;-81
2022/03/04 01:39:30;;;;;;;9.70;9.40;;;-0.40;99.90;;;;;;5140222;28;20242;-79
2022/03/04 01:42:00;;;;;;;9.70;9.40;;;-0.40;99.90;;;;;;5127340;27;20243;-81
2022/03/04 01:44:32;;;;;;;9.90;9.60;;;-0.50;99.90;;;;;;5126606;28;20240;-80
2022/03/04 01:47:01;;;;;;;9.77;9.47;;;-0.50;99.90;;;;;;5126008;28;20291;-82
2022/03/04 01:49:30;;;;;;;9.80;9.50;;;-0.50;99.90;;;;;;5125641;28;20228;-82
2022/03/04 01:52:00;;;;;;;9.70;9.40;;;-0.50;99.90;;;;;;5125458;27;20242;-82
2022/03/04 01:54:57;;;;;;;9.47;9.17;;;-0.50;99.90;;;;;;5124776;28;20246;-82
2022/03/04 01:57:25;;;;;;;9.70;9.40;;;-0.60;99.90;;;;;;5134002;28;20225;-81
2022/03/04 01:59:57;;;;;;;9.50;9.20;;;-0.60;99.90;;;;;;5143001;27;20226;-81
2022/03/04 02:05:49;;;;;;;9.60;9.30;;;-0.70;99.90;;;;;;5181484;27;20524;-81
2022/03/04 02:08:24;;;;;;;9.70;9.40;;;-0.70;99.90;;;;;;5162219;27;20296;-81
2022/03/04 02:10:54;;;;;;;9.43;9.13;;;-0.70;99.90;;;;;;5161398;27;20268;-81
2022/03/04 02:13:24;;;;;;;9.30;9.00;;;-0.80;99.90;;;;;;5160854;27;20231;-80
2022/03/04 02:15:53;;;;;;;9.13;8.87;;;-0.90;99.90;;;;;;5161598;27;20229;-82
2022/03/04 02:18:33;;;;;;;9.40;9.10;;;-0.90;99.90;;;;;;5161124;27;20219;-80
2022/03/04 02:21:09;;;;;;;8.97;8.77;;;-0.90;99.90;;;;;;5160581;27;20276;-81
2022/03/04 02:26:36;;;;;;;9.37;9.07;;;-1.00;99.90;;;;;;5161025;27;20230;-80
2022/03/04 02:29:06;;;;;;;9.80;9.50;;;-1.00;99.90;;;;;;5160582;27;20285;-81
2022/03/04 02:31:36;;;;;;;9.47;9.17;;;-1.00;99.90;;;;;;5161109;27;20264;-80
2022/03/04 02:34:05;;;;;;;9.77;9.47;;;-1.10;99.90;;;;;;5166886;27;20260;-81
2022/03/04 02:39:27;;;;;;;9.37;9.07;;;-1.10;99.90;;;;;;5164669;27;20314;-82
2022/03/04 02:41:57;;;;;;;9.60;9.30;;;-1.10;99.90;;;;;;5159282;27;20701;-81
2022/03/04 02:44:29;;;;;;;10.20;9.90;;;-1.20;99.90;;;;;;5159598;27;20230;-81
2022/03/04 02:46:57;;;;;;;9.83;9.53;;;-1.20;99.90;;;;;;5160009;27;20291;-82
2022/03/04 02:49:25;;;;;;;9.00;8.80;;;-1.20;99.90;;;;;;5159374;27;20523;-82
2022/03/04 02:51:54;;;;;;;9.80;9.50;;;-1.30;99.90;;;;;;5159274;27;20753;-82
2022/03/04 02:54:33;;;;;;;9.47;9.17;;;-1.30;99.90;;;;;;5160126;27;20223;-82
2022/03/04 02:57:06;;;;;;;9.43;9.13;;;-1.30;99.90;;;;;;5160365;27;20223;-82
2022/03/04 02:59:34;;;;;;;9.60;9.30;;;-1.30;99.90;;;;;;5160176;27;20307;-82
2022/03/04 03:02:02;;;;;;;9.60;9.30;;;-1.40;99.90;;;;;;5160249;27;20219;-81
2022/03/04 03:04:30;;;;;;;9.70;9.40;;;-1.40;99.90;;;;;;5160731;27;20237;-82
2022/03/04 03:07:00;;;;;;;9.93;9.63;;;-1.40;99.90;;;;;;5160893;27;20245;-82
2022/03/04 03:09:32;;;;;;;9.70;9.40;;;-1.40;99.90;;;;;;5165238;27;20299;-82
2022/03/04 03:12:09;;;;;;;9.57;9.27;;;-1.40;99.90;;;;;;5162181;27;20247;-82
2022/03/04 03:14:37;;;;;;;9.70;9.40;;;-1.50;99.90;;;;;;5160254;27;20309;-80
2022/03/04 03:17:07;;;;;;;9.80;9.50;;;-1.50;99.90;;;;;;5146698;27;20265;-80
2022/03/04 03:19:37;;;;;;;9.63;9.33;;;-1.60;99.90;;;;;;5146915;27;20223;-82
2022/03/04 03:22:06;;;;;;;9.57;9.27;;;-1.60;99.90;;;;;;5146633;27;20224;-82
2022/03/04 03:24:37;;;;;;;9.90;9.60;;;-1.60;99.90;;;;;;5146894;27;20227;-82
2022/03/04 03:27:05;;;;;;;9.70;9.40;;;-1.60;99.90;;;;;;5146645;27;20230;-82
2022/03/04 03:29:33;;;;;;;9.77;9.47;;;-1.60;99.90;;;;;;5147045;27;20227;-82
2022/03/04 03:32:05;;;;;;;9.73;9.43;;;-1.70;99.90;;;;;;5147989;27;20318;-81
2022/03/04 03:34:33;;;;;;;9.27;8.97;;;-1.70;99.90;;;;;;5161055;27;20212;-81
2022/03/04 03:37:02;;;;;;;9.37;9.07;;;-1.70;99.90;;;;;;5162093;27;20244;-80
2022/03/04 03:39:31;;;;;;;9.57;9.27;;;-1.70;99.90;;;;;;5162852;27;20234;-80
2022/03/04 03:42:11;;;;;;;9.63;9.33;;;-1.70;99.90;;;;;;5162450;27;20228;-81
2022/03/04 03:44:41;;;;;;;9.90;9.60;;;-1.70;99.90;;;;;;5162388;27;20228;-80
2022/03/04 03:47:10;;;;;;;10.30;10.00;;;-1.80;99.90;;;;;;5162366;27;20218;-80
2022/03/04 03:49:39;;;;;;;10.27;9.97;;;-1.80;99.90;;;;;;5163158;27;20260;-80
2022/03/04 03:52:10;;;;;;;9.93;9.63;;;-1.80;99.90;;;;;;5162250;27;20228;-81
2022/03/04 03:54:40;;;;;;;10.60;10.30;;;-1.80;99.90;;;;;;5161300;27;20222;-81
2022/03/04 03:59:55;;;;;;;10.07;9.77;;;-1.80;99.90;;;;;;5156367;27;20214;-82
2022/03/04 04:02:26;;;;;;;9.80;9.50;;;-1.80;99.90;;;;;;5153346;27;20233;-82
2022/03/04 04:04:56;;;;;;;10.00;9.70;;;-1.80;99.90;;;;;;5150641;27;20319;-81
2022/03/04 04:10:11;;;;;;;9.77;9.47;;;-1.90;99.90;;;;;;5145613;27;20233;-81
2022/03/04 04:12:49;;;;;;;9.60;9.30;;;-1.90;99.90;;;;;;5144412;27;20216;-81
2022/03/04 04:15:20;;;;;;;10.00;9.70;;;-1.90;99.90;;;;;;5144921;27;20224;-82
2022/03/04 04:17:48;;;;;;;9.40;9.10;;;-2.00;99.90;;;;;;5144929;27;20285;-81
2022/03/04 04:20:19;;;;;;;9.83;9.53;;;-2.00;99.90;;;;;;5144825;27;20235;-81
2022/03/04 04:22:47;;;;;;;10.03;9.73;;;-2.10;99.90;;;;;;5144864;27;20220;-81
2022/03/04 04:25:17;;;;;;;9.80;9.50;;;-2.10;99.90;;;;;;5144655;27;20231;-81
2022/03/04 04:27:48;;;;;;;10.17;9.87;;;-2.10;99.90;;;;;;5143382;27;20220;-81
2022/03/04 04:30:16;;;;;;;10.57;10.27;;;-2.20;99.90;;;;;;5147231;27;20255;-82
2022/03/04 04:32:44;;;;;;;10.13;9.83;;;-2.30;99.90;;;;;;5149329;27;20220;-82
2022/03/04 04:35:15;;;;;;;9.90;9.60;;;-2.40;99.90;;;;;;5148107;27;20212;-82
2022/03/04 04:37:44;;;;;;;10.20;9.90;;;-2.40;99.90;;;;;;5146758;27;20238;-82
2022/03/04 04:40:13;;;;;;;10.13;9.83;;;-2.40;99.90;;;;;;5144973;27;20933;-81
2022/03/04 04:42:43;;;;;;;10.00;9.70;;;-2.30;99.90;;;;;;5144701;27;20230;-81
2022/03/04 04:45:20;;;;;;;10.00;9.70;;;-2.40;99.90;;;;;;5143915;27;20761;-81
2022/03/04 04:47:50;;;;;;;10.17;9.87;;;-2.40;99.90;;;;;;5144330;27;20283;-81
2022/03/04 04:50:20;;;;;;;10.10;9.80;;;-2.40;99.90;;;;;;5144252;27;20224;-81
2022/03/04 04:52:49;;;;;;;9.90;9.60;;;-2.40;99.90;;;;;;5144006;27;20220;-82
2022/03/04 04:55:19;;;;;;;9.93;9.63;;;-2.40;99.90;;;;;;5144196;27;20279;-82
2022/03/04 04:57:48;;;;;;;9.93;9.63;;;-2.40;99.90;;;;;;5144323;27;20233;-82
2022/03/04 05:03:06;;;;;;;10.03;9.73;;;-2.30;99.90;;;;;;5143916;27;20220;-82
2022/03/04 05:05:34;;;;;;;10.07;9.77;;;-2.30;99.90;;;;;;5144225;27;20226;-82
2022/03/04 05:08:05;;;;;;;10.33;10.03;;;-2.30;99.90;;;;;;5144475;27;20235;-82
2022/03/04 05:10:33;;;;;;;10.20;9.90;;;-2.30;99.90;;;;;;5143643;27;20239;-82
2022/03/04 05:13:01;;;;;;;10.13;9.83;;;-2.30;99.90;;;;;;5144301;27;20250;-82
2022/03/04 05:15:34;;;;;;;10.77;10.47;;;-2.30;99.90;;;;;;5143992;27;20332;-82
2022/03/04 05:18:02;;;;;;;10.50;10.20;;;-2.40;99.90;;;;;;5144107;27;20238;-81
2022/03/04 05:20:30;;;;;;;10.20;9.90;;;-2.40;99.90;;;;;;5144108;27;20305;-82
2022/03/04 05:23:01;;;;;;;10.20;9.90;;;-2.40;99.90;;;;;;5144148;27;20228;-81
2022/03/04 05:25:29;;;;;;;10.10;9.80;;;-2.50;99.90;;;;;;5144185;27;20232;-81
2022/03/04 05:27:58;;;;;;;10.30;10.00;;;-2.50;99.90;;;;;;5144370;27;20228;-81
2022/03/04 05:30:27;;;;;;;10.10;9.80;;;-2.50;99.90;;;;;;5143877;27;20238;-82
2022/03/04 05:33:06;;;;;;;10.63;10.33;;;-2.50;99.90;;;;;;5144012;27;20237;-81
2022/03/04 05:35:36;;;;;;;10.37;10.07;;;-2.50;99.90;;;;;;5143840;27;20285;-82
2022/03/04 05:38:04;;;;;;;10.67;10.37;;;-2.60;99.90;;;;;;5143682;27;20228;-81
2022/03/04 05:40:35;;;;;;;10.80;10.50;;;-2.60;99.90;;;;;;5144898;27;20236;-82
2022/03/04 05:43:03;;;;;;;10.67;10.37;;;-2.60;99.90;;;;;;5144868;27;20224;-84
2022/03/04 05:45:33;;;;;;;10.80;10.50;;;-2.70;99.90;;;;;;5144820;27;20235;-82
2022/03/04 05:48:12;;;;;;;10.77;10.47;;;-2.80;99.90;;;;;;5147546;27;20216;-81
2022/03/04 07:03:40;;;;;;;10.60;10.30;;;-2.00;99.90;;;;;;4959344;28;20270;-86
2022/03/04 07:40:00;;;;;;;10.40;10.10;;;-0.40;99.90;;;;;;4777142;29;20232;-85
2022/03/04 07:45:17;;;;;;;10.80;10.50;;;0.00;99.90;;;;;;4995319;28;20774;-87
2022/03/04 07:47:50;;;;;;;10.70;10.40;;;0.30;99.90;;;;;;5020244;28;20300;-85
2022/03/04 07:50:24;;;;;;;10.30;10.00;;;0.40;99.90;;;;;;5021336;28;20243;-88
2022/03/04 07:52:56;;;;;;;10.40;10.10;;;0.40;99.90;;;;;;5020912;28;20270;-88
2022/03/04 08:07:15;;;;;;;10.50;10.20;;;0.60;99.90;;;;;;4938421;29;20249;-88
2022/03/04 08:55:31;;;;;;;10.33;10.03;;;2.10;99.90;;;;;;4756612;30;20326;-86
2022/03/04 09:06:37;;;;;;;10.13;9.83;;;3.60;99.90;;;;;;4892075;28;20248;-89
2022/03/04 09:15:45;;;;;;;10.10;9.80;;;4.50;99.90;;;;;;4958411;28;20232;-86
2022/03/04 09:18:25;;;;;;;10.23;9.93;;;4.80;99.90;;;;;;4958410;28;20302;-85
2022/03/04 09:21:18;;;;;;;10.50;10.20;;;4.80;99.90;;;;;;5010717;28;20231;-83
2022/03/04 09:23:46;;;;;;;10.40;10.10;;;5.10;99.90;;;;;;5021207;28;20243;-85
2022/03/04 09:27:02;;;;;;;10.60;10.30;;;5.10;99.90;;;;;;5020681;28;20232;-85
2022/03/04 09:29:45;;;;;;;10.30;10.00;;;5.20;99.90;;;;;;4964406;28;20256;-85
2022/03/04 09:33:03;;;;;;;10.37;10.07;;;5.20;99.90;;;;;;5028318;28;20232;-86
2022/03/04 09:39:59;;;;;;;10.43;10.13;;;5.80;99.90;;;;;;4878793;29;20217;-88
2022/03/04 09:46:22;;;;;;;10.10;9.80;;;6.30;99.90;;;;;;4807649;29;20255;-86
2022/03/04 09:48:59;;;;;;;10.30;10.00;;;6.50;99.90;;;;;;4900562;29;20224;-86
2022/03/04 09:51:29;;;;;;;10.37;10.07;;;6.90;99.90;;;;;;4926098;29;20235;-87
2022/03/04 09:54:00;;;;;;;10.13;9.83;;;7.10;99.90;;;;;;4937358;28;20239;-82
2022/03/04 09:56:28;;;;;;;10.13;9.83;;;7.10;99.90;;;;;;4949281;28;20237;-85
2022/03/04 09:58:56;;;;;;;10.20;9.90;;;7.30;99.90;;;;;;4997547;28;20220;-83
2022/03/04 10:01:24;;;;;;;10.30;10.00;;;7.00;99.90;;;;;;4996938;28;20225;-82
2022/03/04 10:03:57;;;;;;;10.30;10.00;;;7.10;99.90;;;;;;4997777;28;20233;-84
2022/03/04 10:15:04;;;;;;;10.33;10.03;;;7.30;99.90;;;;;;4985329;28;20234;-85
2022/03/04 10:18:00;;;;;;;10.37;10.07;;;7.40;99.90;;;;;;4968385;28;20777;-88
2022/03/04 10:54:41;;;;;;;10.60;10.30;;;9.60;99.90;;;;;;4796122;29;20262;-87
2022/03/04 11:04:26;;;;;;;10.53;10.23;;;9.70;99.90;;;;;;4849528;29;20242;-83
2022/03/04 11:14:01;;;;;;;11.00;10.70;;;10.40;99.90;;;;;;4878961;29;20348;-83
2022/03/04 11:16:30;;;;;;;10.50;10.20;;;10.70;99.90;;;;;;4935110;29;20234;-83
2022/03/04 11:23:02;;;;;;;10.70;10.40;;;10.80;99.90;;;;;;4996846;28;20236;-84
2022/03/04 11:25:42;;;;;;;10.23;9.93;;;10.90;99.90;;;;;;4902101;28;20243;-85
2022/03/04 11:28:44;;;;;;;10.60;10.30;;;10.80;99.90;;;;;;5000270;28;20265;-86
2022/03/04 11:46:30;;;;;;;10.30;10.00;;;10.00;99.90;;;;;;5016861;28;20218;-91
2022/03/04 16:36:16;;;;;;;10.20;9.90;;;5.90;99.90;;;;;;4954616;28;20217;-86
2022/03/04 16:55:10;;;;;;;10.17;9.87;;;5.30;99.90;;;;;;5129050;22;20243;-88
2022/03/04 17:04:51;;;;;;;9.80;9.50;;;4.90;99.90;;;;;;5045604;28;20373;-87
2022/03/04 17:43:41;;;;;;;9.17;8.93;;;3.90;99.90;;;;;;5036342;28;20233;-87
2022/03/04 17:52:21;;;;;;;9.50;9.20;;;3.70;99.90;;;;;;5077680;28;20221;-87
2022/03/04 17:54:50;;;;;;;9.33;9.03;;;3.60;99.90;;;;;;5091344;22;20230;-82
2022/03/04 17:57:20;;;;;;;9.40;9.10;;;3.60;99.90;;;;;;5076710;28;20227;-82
2022/03/04 17:59:49;;;;;;;9.13;8.83;;;3.50;99.90;;;;;;5074624;28;20227;-82
2022/03/04 18:02:19;;;;;;;9.07;8.80;;;3.50;99.90;;;;;;5061934;28;20306;-83
2022/03/04 18:04:48;;;;;;;9.30;9.00;;;3.40;99.90;;;;;;5061449;28;20238;-81
2022/03/04 18:07:16;;;;;;;9.13;8.90;;;3.40;99.90;;;;;;5060301;28;20231;-81
2022/03/04 18:09:44;;;;;;;9.50;9.20;;;3.30;99.90;;;;;;5061044;28;20222;-81
2022/03/04 18:12:13;;;;;;;9.23;8.93;;;3.30;99.90;;;;;;5059758;28;20313;-81
2022/03/04 18:14:45;;;;;;;9.07;8.87;;;3.30;99.90;;;;;;5059653;28;20239;-81
2022/03/04 18:17:15;;;;;;;9.40;9.10;;;3.20;99.90;;;;;;5060118;28;20239;-82
2022/03/04 18:19:43;;;;;;;8.77;8.57;;;3.20;99.90;;;;;;5060239;28;20234;-82
2022/03/04 18:22:14;;;;;;;9.00;8.80;;;3.10;99.90;;;;;;5059985;28;20229;-81
2022/03/04 18:24:45;;;;;;;9.00;8.80;;;3.10;99.90;;;;;;5059866;28;20234;-82
2022/03/04 18:27:18;;;;;;;9.00;8.80;;;3.00;99.90;;;;;;5060416;28;20238;-82
2022/03/04 18:29:50;;;;;;;8.87;8.67;;;3.00;99.90;;;;;;5060418;28;20238;-82
2022/03/04 18:32:19;;;;;;;9.40;9.10;;;2.90;99.90;;;;;;5059672;28;20227;-82
2022/03/04 18:34:47;;;;;;;8.90;8.70;;;2.90;99.90;;;;;;5059903;28;20242;-82
2022/03/04 18:37:16;;;;;;;8.90;8.70;;;2.80;99.90;;;;;;5060098;28;20242;-82
2022/03/04 18:42:29;;;;;;;8.90;8.70;;;2.70;99.90;;;;;;5059360;28;20219;-82
2022/03/04 18:47:44;;;;;;;8.93;8.73;;;2.50;99.90;;;;;;5060792;28;20230;-83
2022/03/04 18:50:12;;;;;;;9.23;8.97;;;2.50;99.90;;;;;;5060302;28;20234;-83
2022/03/04 18:52:43;;;;;;;9.63;9.33;;;2.50;99.90;;;;;;5060744;28;20219;-82
2022/03/04 18:55:11;;;;;;;9.00;8.80;;;2.40;99.90;;;;;;5066560;28;20291;-83
2022/03/04 18:57:43;;;;;;;9.37;9.07;;;2.40;99.90;;;;;;5078466;28;20211;-84
2022/03/04 19:00:15;;;;;;;8.93;8.73;;;2.40;99.90;;;;;;5078895;28;20211;-82
2022/03/04 19:02:47;;;;;;;9.30;9.00;;;2.30;99.90;;;;;;5078487;28;20214;-82
2022/03/04 19:05:16;;;;;;;9.30;9.00;;;2.30;99.90;;;;;;5078642;28;20214;-82
2022/03/04 19:07:47;;;;;;;9.10;8.83;;;2.30;99.90;;;;;;5078496;28;20215;-83
2022/03/04 19:10:17;;;;;;;9.10;8.90;;;2.20;99.90;;;;;;5078360;28;20223;-83
2022/03/04 19:12:46;;;;;;;8.97;8.77;;;2.20;99.90;;;;;;5078686;28;20227;-82
2022/03/04 19:15:19;;;;;;;9.20;8.90;;;2.20;99.90;;;;;;5078710;28;20229;-83
2022/03/04 19:17:47;;;;;;;9.17;8.90;;;2.20;99.90;;;;;;5078491;28;20221;-83
2022/03/04 19:20:17;;;;;;;9.40;9.10;;;2.10;99.90;;;;;;5078043;28;20218;-82
2022/03/04 19:22:47;;;;;;;8.93;8.73;;;2.10;99.90;;;;;;5078518;28;20207;-82
2022/03/04 19:25:16;;;;;;;9.50;9.20;;;2.10;99.90;;;;;;5078591;28;20218;-82
2022/03/04 19:27:47;;;;;;;9.30;9.00;;;2.10;99.90;;;;;;5078087;28;20218;-82
2022/03/04 19:30:19;;;;;;;9.00;8.80;;;2.10;99.90;;;;;;5078306;28;20226;-83
2022/03/04 19:32:48;;;;;;;9.30;9.00;;;2.10;99.90;;;;;;5077803;28;20226;-82
2022/03/04 19:35:17;;;;;;;9.17;8.90;;;2.10;99.90;;;;;;5078421;28;20269;-83
2022/03/04 19:37:46;;;;;;;9.20;8.90;;;2.10;99.90;;;;;;5077218;28;20215;-83
2022/03/04 19:40:17;;;;;;;9.00;8.80;;;2.10;99.90;;;;;;5065945;28;20222;-83
2022/03/04 19:42:48;;;;;;;9.50;9.20;;;2.00;99.90;;;;;;5074888;28;20239;-83
2022/03/04 19:45:19;;;;;;;9.63;9.33;;;2.00;99.90;;;;;;5074085;28;20230;-83
2022/03/04 19:47:53;;;;;;;9.50;9.20;;;2.00;99.90;;;;;;5062482;28;20277;-83
2022/03/04 19:50:21;;;;;;;9.33;9.03;;;1.90;99.90;;;;;;5061594;28;20226;-82
2022/03/04 19:52:49;;;;;;;9.50;9.20;;;1.90;99.90;;;;;;5058984;28;20223;-83
2022/03/04 19:55:17;;;;;;;9.50;9.20;;;1.90;99.90;;;;;;5062414;28;20246;-83
2022/03/04 19:57:46;;;;;;;9.27;8.97;;;1.90;99.90;;;;;;5081635;28;20237;-83
2022/03/04 20:00:16;;;;;;;9.00;8.80;;;1.90;99.90;;;;;;5068493;28;20233;-83
2022/03/04 20:02:55;;;;;;;9.50;9.20;;;1.90;99.90;;;;;;5063545;28;20234;-82
2022/03/04 20:05:23;;;;;;;9.50;9.20;;;1.80;99.90;;;;;;5060998;28;20223;-83
2022/03/04 20:07:54;;;;;;;9.17;8.90;;;1.80;99.90;;;;;;5060901;28;20240;-82
2022/03/04 20:10:22;;;;;;;9.50;9.20;;;1.80;99.90;;;;;;5061889;28;20225;-83
2022/03/04 20:12:55;;;;;;;9.40;9.10;;;1.70;99.90;;;;;;5070671;28;20237;-82
2022/03/04 20:15:28;;;;;;;9.60;9.30;;;1.70;99.90;;;;;;5065976;28;20238;-83
2022/03/04 20:17:59;;;;;;;9.77;9.47;;;1.60;99.90;;;;;;5070353;28;20226;-82
2022/03/04 20:20:30;;;;;;;9.37;9.07;;;1.50;99.90;;;;;;5071652;28;20229;-83
2022/03/04 20:22:58;;;;;;;9.60;9.30;;;1.40;99.90;;;;;;5072064;28;21078;-82
2022/03/04 20:25:26;;;;;;;9.80;9.50;;;1.40;99.90;;;;;;5064803;28;20223;-83
2022/03/04 20:27:57;;;;;;;9.60;9.30;;;1.40;99.90;;;;;;5063350;28;20317;-83
2022/03/04 20:30:30;;;;;;;9.40;9.10;;;1.40;99.90;;;;;;5062577;28;20357;-83
2022/03/04 20:33:00;;;;;;;9.43;9.13;;;1.50;99.90;;;;;;5061223;28;20230;-83
2022/03/04 20:35:28;;;;;;;9.33;9.03;;;1.50;99.90;;;;;;5062306;28;20266;-83
2022/03/04 20:37:59;;;;;;;9.40;9.10;;;1.50;99.90;;;;;;5060981;28;20237;-82
2022/03/04 20:40:27;;;;;;;9.23;8.93;;;1.50;99.90;;;;;;5060440;28;20240;-82
2022/03/04 20:42:55;;;;;;;9.30;9.00;;;1.60;99.90;;;;;;5060592;28;20263;-83
2022/03/04 20:45:23;;;;;;;9.50;9.20;;;1.60;99.90;;;;;;5061175;28;20330;-82
2022/03/04 20:47:58;;;;;;;9.30;9.00;;;1.50;99.90;;;;;;5060992;28;20227;-83
2022/03/04 20:50:29;;;;;;;9.50;9.20;;;1.50;99.90;;;;;;5060359;28;20234;-83
2022/03/04 20:53:00;;;;;;;9.60;9.30;;;1.50;99.90;;;;;;5060299;28;20230;-83
2022/03/04 20:55:28;;;;;;;9.60;9.30;;;1.50;99.90;;;;;;5060334;28;20239;-83
2022/03/04 20:57:56;;;;;;;9.40;9.10;;;1.40;99.90;;;;;;5060076;28;20729;-83
2022/03/04 21:00:26;;;;;;;9.20;8.90;;;1.40;99.90;;;;;;5060540;28;20272;-83
2022/03/04 21:02:57;;;;;;;9.00;8.80;;;1.50;99.90;;;;;;5060511;28;20293;-83
2022/03/04 21:05:28;;;;;;;9.30;9.00;;;1.60;99.90;;;;;;5060162;28;20322;-83
2022/03/04 21:07:56;;;;;;;9.20;8.90;;;1.50;99.90;;;;;;5060896;28;20231;-82
2022/03/04 21:10:24;;;;;;;9.50;9.20;;;1.50;99.90;;;;;;5067522;28;20219;-82
2022/03/04 21:12:52;;;;;;;9.60;9.30;;;1.40;99.90;;;;;;5061740;28;20215;-82
2022/03/04 21:15:22;;;;;;;9.73;9.43;;;1.40;99.90;;;;;;5061442;28;20239;-81
2022/03/04 21:17:54;;;;;;;9.50;9.20;;;1.40;99.90;;;;;;5061613;28;20260;-83
2022/03/04 21:20:24;;;;;;;9.40;9.10;;;1.40;99.90;;;;;;5060966;28;20233;-81
2022/03/04 21:22:52;;;;;;;9.40;9.10;;;1.30;99.90;;;;;;5060884;28;20234;-81
2022/03/04 21:25:21;;;;;;;9.30;9.00;;;1.30;99.90;;;;;;5060707;28;20230;-82
2022/03/04 21:27:49;;;;;;;9.30;9.00;;;1.30;99.90;;;;;;5060689;28;20231;-82
2022/03/04 21:30:17;;;;;;;9.63;9.33;;;1.30;99.90;;;;;;5060476;28;20237;-82
2022/03/04 21:32:45;;;;;;;9.87;9.57;;;1.20;99.90;;;;;;5060115;28;20227;-83
2022/03/04 21:35:13;;;;;;;9.60;9.30;;;1.20;99.90;;;;;;5060095;28;20235;-82
2022/03/04 21:37:43;;;;;;;9.50;9.20;;;1.20;99.90;;;;;;5060118;28;20238;-82
2022/03/04 21:40:11;;;;;;;9.60;9.30;;;1.10;99.90;;;;;;5060460;28;20232;-82
2022/03/04 21:42:39;;;;;;;9.67;9.37;;;1.10;99.90;;;;;;5059951;28;20231;-83
2022/03/04 21:45:08;;;;;;;9.53;9.23;;;0.90;99.90;;;;;;5059838;28;20257;-82
2022/03/04 21:47:37;;;;;;;9.33;9.03;;;0.90;99.90;;;;;;5059706;28;20243;-83
2022/03/04 21:50:06;;;;;;;9.70;9.40;;;0.90;99.90;;;;;;5060221;28;20238;-82
2022/03/04 21:52:35;;;;;;;9.57;9.27;;;0.80;99.90;;;;;;5061202;28;20234;-82
2022/03/04 21:55:08;;;;;;;9.60;9.30;;;0.60;99.90;;;;;;5060076;28;20245;-83
2022/03/04 21:57:36;;;;;;;9.73;9.43;;;0.50;99.90;;;;;;5061015;28;20225;-84
2022/03/04 22:00:12;;;;;;;9.80;9.50;;;0.50;99.90;;;;;;5064890;28;20233;-83
2022/03/04 22:02:40;;;;;;;9.90;9.60;;;0.40;99.90;;;;;;5068371;28;20237;-84
2022/03/04 22:05:09;;;;;;;9.77;9.47;;;0.30;99.90;;;;;;5067983;28;20269;-83
2022/03/04 22:07:38;;;;;;;9.90;9.60;;;0.20;99.90;;;;;;5060241;28;20245;-84
2022/03/04 22:10:09;;;;;;;9.70;9.40;;;0.20;99.90;;;;;;5060967;28;20293;-83
2022/03/04 22:12:37;;;;;;;9.67;9.37;;;0.20;99.90;;;;;;5060101;28;20211;-83
2022/03/04 22:15:06;;;;;;;9.63;9.33;;;0.20;99.90;;;;;;5059567;28;20238;-83
2022/03/04 22:17:36;;;;;;;9.63;9.33;;;0.10;99.90;;;;;;5059193;28;20262;-82
2022/03/04 22:20:06;;;;;;;9.50;9.20;;;0.10;99.90;;;;;;5058792;28;20239;-82
2022/03/04 22:22:34;;;;;;;9.67;9.37;;;0.10;99.90;;;;;;5059184;28;20321;-83
2022/03/04 22:25:03;;;;;;;9.73;9.43;;;0.20;99.90;;;;;;5061092;28;20239;-83
2022/03/04 22:27:33;;;;;;;9.60;9.30;;;0.20;99.90;;;;;;5060491;28;20341;-82
2022/03/04 22:30:01;;;;;;;9.90;9.60;;;0.20;99.90;;;;;;5059714;28;20219;-83
2022/03/04 22:32:29;;;;;;;9.53;9.23;;;0.30;99.90;;;;;;5057958;28;20222;-83
2022/03/04 22:34:58;;;;;;;9.33;9.03;;;0.40;99.90;;;;;;5059481;28;20234;-83
2022/03/04 22:37:26;;;;;;;9.47;9.17;;;0.50;99.90;;;;;;5061249;28;20262;-83
2022/03/04 22:39:54;;;;;;;9.47;9.17;;;0.50;99.90;;;;;;5062716;28;20230;-82
2022/03/04 22:42:27;;;;;;;9.40;9.10;;;0.50;99.90;;;;;;5063674;28;20227;-83
2022/03/04 22:44:56;;;;;;;9.37;9.07;;;0.50;99.90;;;;;;5062253;28;20245;-83
2022/03/04 22:47:24;;;;;;;9.40;9.10;;;0.50;99.90;;;;;;5061734;28;20254;-83
2022/03/04 22:49:52;;;;;;;9.50;9.20;;;0.50;99.90;;;;;;5060731;28;20237;-83
2022/03/04 22:52:23;;;;;;;9.30;9.00;;;0.50;99.90;;;;;;5059651;28;20246;-83
2022/03/04 22:54:50;;;;;;;9.33;9.03;;;0.50;99.90;;;;;;5060292;28;20250;-83
2022/03/04 22:57:19;;;;;;;9.53;9.23;;;0.40;99.90;;;;;;5060562;28;20238;-83
2022/03/04 22:59:46;;;;;;;9.80;9.50;;;0.40;99.90;;;;;;5060140;28;20265;-84
2022/03/04 23:08:06;;;;;;;9.60;9.30;;;0.40;99.90;;;;;;5059986;28;20222;-83
2022/03/04 23:08:09;;;;;;;9.83;9.53;;;0.10;99.90;;;;;;5064348;28;20237;-84
2022/03/04 23:13:27;;;;;;;9.70;9.40;;;-0.20;99.90;;;;;;5059797;28;20238;-83
2022/03/04 23:15:54;;;;;;;10.00;9.70;;;-0.30;99.90;;;;;;5059704;28;20239;-83
2022/03/04 23:18:24;;;;;;;9.77;9.47;;;-0.30;99.90;;;;;;5058952;28;20230;-82
2022/03/04 23:20:52;;;;;;;9.80;9.50;;;-0.30;99.90;;;;;;5059288;28;20230;-83
2022/03/04 23:23:20;;;;;;;10.00;9.70;;;-0.30;99.90;;;;;;5058894;28;20237;-83
2022/03/04 23:25:49;;;;;;;9.77;9.47;;;-0.30;99.90;;;;;;5058623;28;20302;-83
2022/03/04 23:28:17;;;;;;;10.10;9.80;;;-0.40;99.90;;;;;;5058057;28;20235;-83
2022/03/04 23:30:45;;;;;;;10.07;9.77;;;-0.40;99.90;;;;;;5059028;28;20238;-82
2022/03/04 23:33:13;;;;;;;10.20;9.90;;;-0.50;99.90;;;;;;5058500;28;20222;-83
2022/03/04 23:35:42;;;;;;;10.03;9.73;;;-0.50;99.90;;;;;;5059359;28;20238;-82
2022/03/04 23:38:10;;;;;;;10.03;9.73;;;-0.40;99.90;;;;;;5058097;28;20336;-83
2022/03/04 23:40:38;;;;;;;9.90;9.60;;;-0.40;99.90;;;;;;5058137;28;20239;-82
2022/03/04 23:43:06;;;;;;;10.10;9.80;;;-0.40;99.90;;;;;;5057934;28;20236;-83
2022/03/04 23:45:37;;;;;;;10.20;9.90;;;-0.50;99.90;;;;;;5058333;28;20238;-84
2022/03/04 23:48:08;;;;;;;10.20;9.90;;;-0.50;99.90;;;;;;5057970;28;20292;-82
2022/03/04 23:50:36;;;;;;;10.07;9.77;;;-0.50;99.90;;;;;;5057243;28;20218;-82
2022/03/04 23:53:05;;;;;;;9.87;9.57;;;-0.50;99.90;;;;;;5057343;28;20237;-82
